TCO weather

La Florida Airport
Tumaco, NariƱo Department, Colombia

Public forecast

Using degrees Celsius for public forecast. Weather courtesy of forecast.io.

Current aviation weather report (METAR) for La Florida Airport

Report is more than 6 hours old.

Retrieved 2019/09/14 18:00 UTC (1 month ago):

SKCO 141800Z 26009KT 5000 DZ OVC015 26/23 A2984

Closest aviation forecast (TAF) to La Florida Airport

Forecast is more than 12 hours old.

Closest forecast is Teniente Coronel Luis a Mantilla Airport, 86.9 nm (160.9 km) SE. Retrieved 2018/04/06 18:33 UTC (2 years ago):

TAF SPJC 061700Z 0618/0718 25008KT CAVOK TX26/0618Z TN18/0711ZLVA0883 061730 GG KWBCYMYX 061730 SEQUYZYX SPEQ SEQU 061728 SPECI SETU 061728Z 07006KT 9999 -TSRA FEW020CB BKN023 CB OVER STN